createdAt,value
2019-05-11T00:00:39.279Z,11.97
2019-05-11T00:01:39.461Z,12.1
2019-05-11T00:02:40.136Z,12.08
2019-05-11T00:03:40.938Z,12.08
2019-05-11T00:04:41.070Z,12.15
2019-05-11T00:05:41.768Z,12.1
2019-05-11T00:06:41.894Z,12.07
2019-05-11T00:07:42.841Z,12.1
2019-05-11T00:08:43.281Z,12.08
2019-05-11T00:09:58.605Z,12.02
2019-05-11T00:10:44.857Z,12
2019-05-11T00:11:45.291Z,12.05
2019-05-11T00:12:45.701Z,11.96
2019-05-11T00:13:46.133Z,11.96
2019-05-11T00:14:46.836Z,11.93
2019-05-11T00:15:47.538Z,11.93
2019-05-11T00:16:47.660Z,11.91
2019-05-11T00:17:48.986Z,11.78
2019-05-11T00:18:49.709Z,11.78
2019-05-11T00:19:49.825Z,11.78
2019-05-11T00:20:49.969Z,11.81
2019-05-11T00:21:50.361Z,11.8
2019-05-11T00:22:50.776Z,11.78
2019-05-11T00:23:51.208Z,11.73
2019-05-11T00:24:51.954Z,11.76
2019-05-11T00:25:52.652Z,11.7
2019-05-11T00:26:52.851Z,11.68
2019-05-11T00:27:53.673Z,11.7
2019-05-11T00:28:54.095Z,11.55
2019-05-11T00:29:54.222Z,11.68
2019-05-11T00:30:55.039Z,11.63
2019-05-11T00:31:55.456Z,11.68
2019-05-11T00:32:56.429Z,11.6
2019-05-11T00:33:56.555Z,11.6
2019-05-11T00:34:57.545Z,11.67
2019-05-11T00:35:58.237Z,11.67
2019-05-11T00:36:58.358Z,11.73
2019-05-11T00:37:58.590Z,11.74
2019-05-11T00:38:59.292Z,11.83
2019-05-11T00:40:14.906Z,11.8
2019-05-11T00:41:00.494Z,11.83
2019-05-11T00:42:00.613Z,11.85
2019-05-11T00:43:01.337Z,11.88
2019-05-11T00:44:01.449Z,11.88
2019-05-11T00:45:01.862Z,11.95
2019-05-11T00:46:02.616Z,11.93
2019-05-11T00:47:02.805Z,11.97
2019-05-11T00:48:03.496Z,11.91
2019-05-11T00:49:03.909Z,11.96
2019-05-11T00:50:04.031Z,11.95
2019-05-11T00:51:04.700Z,11.95
2019-05-11T00:52:05.389Z,11.97
2019-05-11T00:53:05.878Z,11.99
2019-05-11T00:54:06.279Z,11.89
2019-05-11T00:55:06.390Z,11.89
2019-05-11T00:56:06.839Z,11.88
2019-05-11T00:57:07.568Z,11.88
2019-05-11T00:58:08.224Z,11.83
2019-05-11T00:59:22.219Z,11.8
2019-05-11T01:00:08.957Z,11.81
2019-05-11T01:01:09.682Z,11.85
2019-05-11T01:02:10.683Z,11.8
2019-05-11T01:03:11.380Z,11.74
2019-05-11T01:04:11.787Z,11.78
2019-05-11T01:05:12.424Z,11.77
2019-05-11T01:06:13.674Z,11.77
2019-05-11T01:07:14.083Z,11.78
2019-05-11T01:08:14.753Z,11.67
2019-05-11T01:09:14.879Z,11.73
2019-05-11T01:10:42.610Z,11.68
2019-05-11T01:11:15.838Z,11.74
2019-05-11T01:12:16.235Z,11.71
2019-05-11T01:13:17.003Z,11.68
2019-05-11T01:14:17.843Z,11.76
2019-05-11T01:15:18.905Z,11.7
2019-05-11T01:16:19.332Z,11.71
2019-05-11T01:17:19.748Z,11.7
2019-05-11T01:18:20.531Z,11.73
2019-05-11T01:19:21.241Z,11.76
2019-05-11T01:20:24.120Z,11.65
2019-05-11T01:21:22.530Z,11.73
2019-05-11T01:22:22.643Z,11.68
2019-05-11T01:23:22.764Z,11.7
2019-05-11T01:24:23.221Z,11.63
2019-05-11T01:25:23.655Z,11.63
2019-05-11T01:26:24.655Z,11.58
2019-05-11T01:27:24.761Z,11.53
2019-05-11T01:28:25.735Z,11.6
2019-05-11T01:29:26.182Z,11.6
2019-05-11T01:30:27.471Z,11.63
2019-05-11T01:31:27.977Z,11.65
2019-05-11T01:32:28.663Z,11.73
2019-05-11T01:33:29.076Z,11.71
2019-05-11T01:34:29.472Z,11.74
2019-05-11T01:35:30.205Z,11.74
2019-05-11T01:36:30.925Z,11.83
2019-05-11T01:37:31.051Z,11.78
2019-05-11T01:38:31.706Z,11.88
2019-05-11T01:39:31.825Z,11.91
2019-05-11T01:40:32.221Z,11.91
2019-05-11T01:41:33.285Z,11.97
2019-05-11T01:42:33.976Z,11.91
2019-05-11T01:43:34.381Z,11.97
2019-05-11T01:44:34.503Z,12
2019-05-11T01:45:34.624Z,11.97
2019-05-11T01:46:34.739Z,12.05
2019-05-11T01:47:34.853Z,12.05
2019-05-11T01:48:35.078Z,12.07
2019-05-11T01:49:36.047Z,12
2019-05-11T01:50:36.162Z,12.05
2019-05-11T01:51:36.337Z,12.05
2019-05-11T01:52:37.033Z,12.02
2019-05-11T01:53:37.157Z,12.08
2019-05-11T01:54:37.951Z,12.07
2019-05-11T01:55:38.647Z,12.02
2019-05-11T01:56:39.349Z,12.11
2019-05-11T01:57:39.757Z,12.08
2019-05-11T01:58:39.967Z,12.17
2019-05-11T01:59:40.944Z,12.07
2019-05-11T02:00:41.362Z,12.18
2019-05-11T02:01:42.059Z,12.2
2019-05-11T02:02:42.749Z,12.14
2019-05-11T02:03:43.158Z,12.15
2019-05-11T02:04:43.549Z,12.18
2019-05-11T02:05:44.235Z,12.23
2019-05-11T02:06:44.941Z,12.26
2019-05-11T02:07:45.358Z,12.17
2019-05-11T02:08:46.011Z,12.32
2019-05-11T02:09:46.422Z,12.3
2019-05-11T02:10:46.539Z,12.28
2019-05-11T02:11:46.960Z,12.21
2019-05-11T02:12:47.371Z,12.28
2019-05-11T02:13:47.486Z,12.26
2019-05-11T02:14:47.896Z,12.29
2019-05-11T02:15:48.612Z,12.29
2019-05-11T02:16:49.626Z,12.29
2019-05-11T02:17:50.321Z,12.26
2019-05-11T02:18:50.535Z,12.29
2019-05-11T02:19:51.242Z,12.29
2019-05-11T02:20:52.261Z,12.25
2019-05-11T02:21:52.979Z,12.26
2019-05-11T02:22:53.152Z,12.32
2019-05-11T02:23:53.568Z,12.32
2019-05-11T02:24:53.970Z,12.3
2019-05-11T02:25:54.080Z,12.26
2019-05-11T02:26:54.197Z,12.23
2019-05-11T02:27:54.900Z,12.17
2019-05-11T02:28:56.120Z,12.23
2019-05-11T02:29:56.528Z,12.21
2019-05-11T02:30:57.295Z,12.28
2019-05-11T02:31:57.707Z,12.32
2019-05-11T02:32:58.786Z,12.33
2019-05-11T02:33:59.203Z,12.28
2019-05-11T02:34:59.935Z,12.29
2019-05-11T02:36:00.978Z,12.32
2019-05-11T02:37:02.072Z,12.21
2019-05-11T02:38:02.517Z,12.21
2019-05-11T02:39:03.654Z,12.28
2019-05-11T02:40:03.643Z,12.11
2019-05-11T02:41:04.672Z,12.18
2019-05-11T02:42:05.704Z,12.23
2019-05-11T02:43:06.140Z,12.2
2019-05-11T02:44:06.848Z,12.2
2019-05-11T02:45:07.558Z,12.14
2019-05-11T02:46:08.553Z,12.23
2019-05-11T02:47:09.006Z,12.17
2019-05-11T02:48:09.698Z,12.08
2019-05-11T02:49:10.504Z,12.2
2019-05-11T02:50:11.207Z,12.05
2019-05-11T02:51:11.902Z,12.08
2019-05-11T02:52:12.898Z,12.18
2019-05-11T02:53:12.607Z,12.17
2019-05-11T02:54:13.323Z,12.25
2019-05-11T02:55:14.038Z,12.17
2019-05-11T02:56:15.032Z,12.15
2019-05-11T02:57:15.438Z,12.21
2019-05-11T02:58:16.451Z,12.21
2019-05-11T02:59:16.303Z,12.18
2019-05-11T03:00:16.985Z,12.14
2019-05-11T03:01:17.119Z,12.28
2019-05-11T03:02:17.828Z,12.32
2019-05-11T03:03:19.131Z,12.28
2019-05-11T03:04:19.557Z,12.32
2019-05-11T03:05:20.013Z,12.32
2019-05-11T03:06:20.765Z,12.32
2019-05-11T03:07:22.032Z,12.37
2019-05-11T03:08:22.443Z,12.28
2019-05-11T03:09:22.404Z,12.33
2019-05-11T03:10:23.134Z,12.39
2019-05-11T03:11:23.846Z,12.4
2019-05-11T03:12:24.537Z,12.39
2019-05-11T03:13:25.539Z,12.4
2019-05-11T03:14:25.658Z,12.37
2019-05-11T03:15:26.096Z,12.33
2019-05-11T03:16:27.087Z,12.35
2019-05-11T03:17:27.505Z,12.33
2019-05-11T03:18:28.513Z,12.44
2019-05-11T03:19:28.764Z,12.4
2019-05-11T03:20:29.503Z,12.39
2019-05-11T03:21:29.935Z,12.39
2019-05-11T03:22:30.407Z,12.48
2019-05-11T03:23:31.677Z,12.51
2019-05-11T03:24:31.835Z,12.5
2019-05-11T03:25:31.964Z,12.48
2019-05-11T03:26:32.085Z,12.51
2019-05-11T03:27:32.211Z,12.53
2019-05-11T03:28:32.977Z,12.53
2019-05-11T03:29:33.508Z,12.54
2019-05-11T03:30:33.608Z,12.54
2019-05-11T03:31:34.259Z,12.57
2019-05-11T03:32:34.040Z,12.57
2019-05-11T03:33:34.539Z,12.53
2019-05-11T03:34:34.996Z,12.7
2019-05-11T03:35:36.575Z,12.57
2019-05-11T03:36:36.613Z,12.53
2019-05-11T03:37:37.411Z,12.68
2019-05-11T03:38:38.115Z,12.57
2019-05-11T03:39:38.397Z,12.57
2019-05-11T03:40:38.713Z,12.51
2019-05-11T03:41:38.727Z,12.54
2019-05-11T03:42:39.769Z,12.57
2019-05-11T03:43:40.253Z,12.57
2019-05-11T03:44:40.809Z,12.57
2019-05-11T03:45:41.628Z,12.53
2019-05-11T03:46:42.433Z,12.57
2019-05-11T03:47:43.407Z,12.57
2019-05-11T03:48:43.112Z,12.58
2019-05-11T03:49:43.691Z,12.57
2019-05-11T03:50:44.392Z,12.55
2019-05-11T03:51:45.412Z,12.57
2019-05-11T03:52:46.179Z,12.57
2019-05-11T03:53:46.207Z,12.65
2019-05-11T03:54:46.475Z,12.66
2019-05-11T03:55:47.180Z,12.55
2019-05-11T03:56:47.587Z,12.61
2019-05-11T03:57:48.152Z,12.51
2019-05-11T03:58:48.453Z,12.51
2019-05-11T03:59:49.239Z,12.54
2019-05-11T04:00:49.935Z,12.62
2019-05-11T04:01:50.357Z,12.57
2019-05-11T04:02:51.322Z,12.57
2019-05-11T04:03:52.295Z,12.58
2019-05-11T04:04:53.020Z,12.54
2019-05-11T04:05:54.016Z,12.61
2019-05-11T04:06:54.015Z,12.57
2019-05-11T04:07:54.721Z,12.65
2019-05-11T04:08:55.445Z,12.62
2019-05-11T04:09:55.706Z,12.54
2019-05-11T04:10:56.415Z,12.58
2019-05-11T04:11:57.414Z,12.54
2019-05-11T04:12:57.707Z,12.62
2019-05-11T04:13:58.130Z,12.61
2019-05-11T04:14:58.875Z,12.65
2019-05-11T04:15:58.881Z,12.63
2019-05-11T04:16:59.584Z,12.65
2019-05-11T04:18:00.923Z,12.68
2019-05-11T04:19:00.906Z,12.68
2019-05-11T04:20:01.509Z,12.63
2019-05-11T04:21:02.808Z,12.63
2019-05-11T04:22:03.511Z,12.68
2019-05-11T04:23:03.740Z,12.69
2019-05-11T04:24:05.038Z,12.61
2019-05-11T04:25:06.374Z,12.68
2019-05-11T04:26:06.210Z,12.63
2019-05-11T04:27:06.900Z,12.69
2019-05-11T04:28:07.795Z,12.66
2019-05-11T04:29:08.245Z,12.69
2019-05-11T04:30:08.480Z,12.66
2019-05-11T04:31:09.767Z,12.63
2019-05-11T04:32:09.887Z,12.63
2019-05-11T04:33:10.319Z,12.68
2019-05-11T04:34:11.053Z,12.7
2019-05-11T04:35:11.781Z,12.66
2019-05-11T04:36:11.936Z,12.68
2019-05-11T04:37:12.332Z,12.66
2019-05-11T04:38:13.048Z,12.72
2019-05-11T04:39:13.203Z,12.63
2019-05-11T04:40:14.014Z,12.66
2019-05-11T04:41:14.756Z,12.63
2019-05-11T04:42:15.464Z,12.62
2019-05-11T04:43:16.472Z,12.61
2019-05-11T04:44:17.172Z,12.81
2019-05-11T04:45:17.989Z,12.66
2019-05-11T04:46:19.022Z,12.65
2019-05-11T04:47:19.040Z,12.63
2019-05-11T04:48:19.170Z,12.66
2019-05-11T04:49:19.566Z,12.61
2019-05-11T04:50:20.372Z,12.7
2019-05-11T04:51:20.081Z,12.61
2019-05-11T04:52:20.239Z,12.65
2019-05-11T04:53:21.226Z,12.61
2019-05-11T04:54:22.242Z,12.65
2019-05-11T04:55:22.531Z,12.66
2019-05-11T04:56:23.265Z,12.63
2019-05-11T04:57:23.684Z,12.61
2019-05-11T04:58:24.698Z,12.65
2019-05-11T04:59:24.825Z,12.65
2019-05-11T05:00:25.062Z,12.7
2019-05-11T05:01:25.475Z,12.66
2019-05-11T05:02:27.896Z,12.62
2019-05-11T05:03:41.437Z,12.78
2019-05-11T05:04:26.514Z,12.8
2019-05-11T05:05:26.629Z,12.76
2019-05-11T05:06:30.162Z,12.76
2019-05-11T05:07:27.930Z,12.87
2019-05-11T05:08:32.215Z,12.8
2019-05-11T05:09:29.275Z,12.87
2019-05-11T05:10:28.222Z,12.88
2019-05-11T05:11:36.491Z,12.84
2019-05-11T05:12:29.341Z,12.98
2019-05-11T05:13:35.217Z,13.03
2019-05-11T05:14:30.618Z,12.99
2019-05-11T05:15:31.315Z,13.01
2019-05-11T05:16:32.246Z,12.91
2019-05-11T05:17:31.660Z,12.76
2019-05-11T05:18:32.135Z,12.7
2019-05-11T05:19:33.131Z,12.76
2019-05-11T05:20:33.380Z,12.66
2019-05-11T05:21:33.238Z,12.72
2019-05-11T05:22:34.599Z,12.78
2019-05-11T05:23:35.019Z,12.86
2019-05-11T05:24:35.141Z,12.99
2019-05-11T05:25:35.834Z,13.03
2019-05-11T05:26:36.291Z,13.09
2019-05-11T05:27:36.995Z,13.19
2019-05-11T05:28:37.451Z,13.19
2019-05-11T05:29:38.097Z,13.23
2019-05-11T05:30:38.344Z,13.16
2019-05-11T05:31:39.381Z,13.26
2019-05-11T05:32:40.368Z,13.33
2019-05-11T05:33:41.095Z,13.3
2019-05-11T05:34:40.816Z,13.28
2019-05-11T05:35:40.989Z,13.37
2019-05-11T05:36:41.402Z,13.4
2019-05-11T05:37:41.579Z,13.43
2019-05-11T05:38:42.293Z,13.43
2019-05-11T05:39:42.791Z,13.37
2019-05-11T05:40:43.379Z,13.37
2019-05-11T05:41:57.706Z,13.4
2019-05-11T05:42:44.221Z,13.43
2019-05-11T05:43:44.992Z,13.4
2019-05-11T05:44:45.132Z,13.46
2019-05-11T05:45:45.547Z,13.4
2019-05-11T05:46:46.529Z,13.42
2019-05-11T05:47:46.985Z,13.43
2019-05-11T05:48:47.401Z,13.6
2019-05-11T05:49:47.817Z,13.54
2019-05-11T05:50:48.322Z,13.54
2019-05-11T05:51:49.018Z,13.6
2019-05-11T05:52:50.116Z,13.57
2019-05-11T05:53:49.901Z,13.57
2019-05-11T05:54:50.910Z,13.6
2019-05-11T05:55:51.322Z,13.6
2019-05-11T05:56:52.536Z,13.58
2019-05-11T05:57:52.654Z,13.61
2019-05-11T05:58:53.087Z,13.68
2019-05-11T05:59:53.789Z,13.62
2019-05-11T06:00:53.761Z,13.64
2019-05-11T06:01:54.465Z,13.65
2019-05-11T06:02:55.200Z,13.67
2019-05-11T06:03:55.322Z,13.68
2019-05-11T06:04:55.736Z,13.7
2019-05-11T06:05:55.856Z,13.7
2019-05-11T06:06:56.326Z,13.68
2019-05-11T06:07:57.015Z,13.71
2019-05-11T06:08:57.727Z,13.7
2019-05-11T06:09:58.469Z,13.78
2019-05-11T06:10:58.809Z,13.75
2019-05-11T06:11:59.227Z,13.82
2019-05-11T06:12:59.647Z,13.86
2019-05-11T06:13:59.777Z,14.05
2019-05-11T06:15:00.276Z,14
2019-05-11T06:16:01.004Z,14.05
2019-05-11T06:17:01.205Z,14.15
2019-05-11T06:18:06.169Z,14.23
2019-05-11T06:19:02.170Z,14.23
2019-05-11T06:20:04.388Z,14.34
2019-05-11T06:21:03.232Z,14.37
2019-05-11T06:22:03.664Z,14.4
2019-05-11T06:23:03.812Z,14.37
2019-05-11T06:24:11.529Z,14.45
2019-05-11T06:25:04.547Z,14.52
2019-05-11T06:26:04.996Z,14.53
2019-05-11T06:27:05.415Z,14.58
2019-05-11T06:28:05.888Z,14.58
2019-05-11T06:29:06.368Z,14.61
2019-05-11T06:30:07.179Z,14.63
2019-05-11T06:31:07.480Z,14.7
2019-05-11T06:32:07.605Z,14.79
2019-05-11T06:33:08.030Z,14.71
2019-05-11T06:34:09.047Z,14.81
2019-05-11T06:35:09.183Z,14.93
2019-05-11T06:36:09.724Z,14.99
2019-05-11T06:37:10.504Z,14.92
2019-05-11T06:38:11.199Z,15.04
2019-05-11T06:39:11.193Z,15.12
2019-05-11T06:40:11.637Z,15.08
2019-05-11T06:41:11.868Z,15.14
2019-05-11T06:42:12.571Z,15.17
2019-05-11T06:43:12.970Z,15.26
2019-05-11T06:44:13.092Z,15.32
2019-05-11T06:45:13.500Z,15.3
2019-05-11T06:46:14.000Z,15.41
2019-05-11T06:47:14.427Z,15.37
2019-05-11T06:48:14.852Z,15.37
2019-05-11T06:49:15.373Z,15.43
2019-05-11T06:50:16.072Z,15.44
2019-05-11T06:51:16.315Z,15.45
2019-05-11T06:52:16.746Z,15.51
2019-05-11T06:53:17.820Z,15.47
2019-05-11T06:54:17.593Z,15.52
2019-05-11T06:55:18.003Z,15.57
2019-05-11T06:56:18.429Z,15.52
2019-05-11T06:57:19.138Z,15.57
2019-05-11T06:58:19.833Z,15.52
2019-05-11T06:59:22.649Z,15.62
2019-05-11T07:00:20.735Z,15.6
2019-05-11T07:01:20.704Z,15.63
2019-05-11T07:02:21.127Z,15.72
2019-05-11T07:03:21.542Z,15.78
2019-05-11T07:04:22.234Z,15.84
2019-05-11T07:05:22.726Z,15.81
2019-05-11T07:06:30.584Z,16.08
2019-05-11T07:07:23.845Z,16.32
2019-05-11T07:08:24.269Z,16.77
2019-05-11T07:09:24.757Z,17.37
2019-05-11T07:10:25.179Z,17.54
2019-05-11T07:11:25.136Z,17.41
2019-05-11T07:12:28.354Z,17.35
2019-05-11T07:13:26.490Z,17.34
2019-05-11T07:14:27.394Z,17.35
2019-05-11T07:15:27.520Z,17.27
2019-05-11T07:16:28.544Z,17.27
2019-05-11T07:17:28.541Z,17.41
2019-05-11T07:18:29.233Z,17.53
2019-05-11T07:19:29.658Z,17.69
2019-05-11T07:20:29.783Z,17.8
2019-05-11T07:21:31.741Z,17.82
2019-05-11T07:22:32.150Z,17.93
2019-05-11T07:23:32.836Z,18.05
2019-05-11T07:24:33.110Z,18
2019-05-11T07:25:33.897Z,18.02
2019-05-11T07:26:34.298Z,17.98
2019-05-11T07:27:34.997Z,17.97
2019-05-11T07:28:35.726Z,17.98
2019-05-11T07:29:36.435Z,18.05
2019-05-11T07:30:36.886Z,18.06
2019-05-11T07:31:37.443Z,18.05
2019-05-11T07:32:38.529Z,17.98
2019-05-11T07:33:38.651Z,17.87
2019-05-11T07:34:38.789Z,17.78
2019-05-11T07:35:38.908Z,17.73
2019-05-11T07:36:39.477Z,17.54
2019-05-11T07:37:39.902Z,17.56
2019-05-11T07:38:40.169Z,17.44
2019-05-11T07:39:40.574Z,17.39
2019-05-11T07:40:40.700Z,17.34
2019-05-11T07:41:41.502Z,17.35
2019-05-11T07:42:43.814Z,17.32
2019-05-11T07:43:43.611Z,17.35
2019-05-11T07:44:48.443Z,17.39
2019-05-11T07:45:44.841Z,17.38
2019-05-11T07:46:44.261Z,17.41
2019-05-11T07:47:44.386Z,17.52
2019-05-11T07:48:45.085Z,17.73
2019-05-11T07:49:49.055Z,17.94
2019-05-11T07:50:48.272Z,18.36
2019-05-11T07:51:48.737Z,18.31
2019-05-11T07:52:49.149Z,18.36
2019-05-11T07:53:49.834Z,18.52
2019-05-11T07:54:53.506Z,18.66
2019-05-11T07:55:50.628Z,18.81
2019-05-11T07:56:53.297Z,19.08
2019-05-11T07:57:53.917Z,19.11
2019-05-11T07:58:53.617Z,19.07
2019-05-11T07:59:54.205Z,19.27
2019-05-11T08:00:54.442Z,19.59
2019-05-11T08:01:54.337Z,19.71
2019-05-11T08:02:55.178Z,20.14
2019-05-11T08:03:55.620Z,20.58
2019-05-11T08:04:58.959Z,20.77
2019-05-11T08:06:02.256Z,20.56
2019-05-11T08:06:58.809Z,20.55
2019-05-11T08:07:59.890Z,20.18
2019-05-11T08:08:59.582Z,19.89
2019-05-11T08:10:00.166Z,19.64
2019-05-11T08:11:00.596Z,19.39
2019-05-11T08:12:01.184Z,18.89
2019-05-11T08:13:04.782Z,18.76
2019-05-11T08:14:04.494Z,18.61
2019-05-11T08:15:14.596Z,18.57
2019-05-11T08:16:03.433Z,18.39
2019-05-11T08:17:08.257Z,18.42
2019-05-11T08:18:03.992Z,18.34
2019-05-11T08:19:10.676Z,18.19
2019-05-11T08:20:04.906Z,18.18
2019-05-11T08:21:05.662Z,18.13
2019-05-11T08:22:09.127Z,18.02
2019-05-11T08:23:08.786Z,17.97
2019-05-11T08:24:09.437Z,18.03
2019-05-11T08:25:09.576Z,17.93
2019-05-11T08:26:08.793Z,17.9
2019-05-11T08:27:09.044Z,17.76
2019-05-11T08:28:12.505Z,17.78
2019-05-11T08:29:08.657Z,17.75
2019-05-11T08:30:09.090Z,17.68
2019-05-11T08:31:09.215Z,17.76
2019-05-11T08:32:09.445Z,17.68
2019-05-11T08:33:09.562Z,17.63
2019-05-11T08:34:10.259Z,17.71
2019-05-11T08:35:11.267Z,17.73
2019-05-11T08:36:13.851Z,17.79
2019-05-11T08:37:14.652Z,17.91
2019-05-11T08:38:14.378Z,17.9
2019-05-11T08:39:14.838Z,17.87
2019-05-11T08:40:15.441Z,17.87
2019-05-11T08:41:18.165Z,17.84
2019-05-11T08:42:18.389Z,17.78
2019-05-11T08:43:18.541Z,17.69
2019-05-11T08:44:18.540Z,17.75
2019-05-11T08:45:28.504Z,17.79
2019-05-11T08:46:18.940Z,17.78
2019-05-11T08:47:19.061Z,17.76
2019-05-11T08:48:19.781Z,17.9
2019-05-11T08:49:22.032Z,17.87
2019-05-11T08:50:21.458Z,17.91
2019-05-11T08:51:20.984Z,17.94
2019-05-11T08:52:24.095Z,17.94
2019-05-11T08:53:23.683Z,17.76
2019-05-11T08:54:24.438Z,17.75
2019-05-11T08:55:24.489Z,17.65
2019-05-11T08:56:24.925Z,17.63
2019-05-11T08:57:25.304Z,17.53
2019-05-11T08:58:28.257Z,17.57
2019-05-11T08:59:28.269Z,17.5
2019-05-11T09:00:28.727Z,17.46
2019-05-11T09:01:29.062Z,17.42
2019-05-11T09:02:28.294Z,17.38
2019-05-11T09:03:29.106Z,17.35
2019-05-11T09:04:29.284Z,17.39
2019-05-11T09:05:29.622Z,17.31
2019-05-11T09:06:30.041Z,17.27
2019-05-11T09:07:33.541Z,17.22
2019-05-11T09:08:33.938Z,17.16
2019-05-11T09:09:31.058Z,16.99
2019-05-11T09:10:39.722Z,16.83
2019-05-11T09:11:33.857Z,16.77
2019-05-11T09:12:34.340Z,16.59
2019-05-11T09:13:33.853Z,16.44
2019-05-11T09:14:34.739Z,16.41
2019-05-11T09:15:42.555Z,16.34
2019-05-11T09:16:37.992Z,16.25
2019-05-11T09:17:38.760Z,16.13
2019-05-11T09:18:38.888Z,16.24
2019-05-11T09:19:39.136Z,16.21
2019-05-11T09:20:38.259Z,16.13
2019-05-11T09:21:39.107Z,16.13
2019-05-11T09:22:39.768Z,16.08
2019-05-11T09:23:45.642Z,16.05
2019-05-11T09:24:41.013Z,15.98
2019-05-11T09:25:44.252Z,15.88
2019-05-11T09:26:44.699Z,15.94
2019-05-11T09:27:43.829Z,15.88
2019-05-11T09:28:44.283Z,15.87
2019-05-11T09:29:44.472Z,15.81
2019-05-11T09:30:44.899Z,15.75
2019-05-11T09:31:44.839Z,15.81
2019-05-11T09:32:48.021Z,15.78
2019-05-11T09:33:48.365Z,15.8
2019-05-11T09:34:48.791Z,15.7
2019-05-11T09:35:58.581Z,15.81
2019-05-11T09:36:48.609Z,15.81
2019-05-11T09:37:48.806Z,15.73
2019-05-11T09:38:49.340Z,15.67
2019-05-11T09:39:48.458Z,15.62
2019-05-11T09:40:48.586Z,15.39
2019-05-11T09:41:49.304Z,15.35
2019-05-11T09:42:49.959Z,15.23
2019-05-11T09:43:50.372Z,15.23
2019-05-11T09:44:50.491Z,15.17
2019-05-11T09:45:54.691Z,15.17
2019-05-11T09:46:53.274Z,15.12
2019-05-11T09:47:53.264Z,15.02
2019-05-11T09:48:54.138Z,14.96
2019-05-11T09:49:58.553Z,14.94
2019-05-11T09:50:53.970Z,14.96
2019-05-11T09:51:54.673Z,14.97
2019-05-11T09:52:55.009Z,14.79
2019-05-11T09:53:55.419Z,14.77
2019-05-11T09:54:58.230Z,14.71
2019-05-11T09:55:59.356Z,14.7
2019-05-11T09:56:58.231Z,14.61
2019-05-11T09:57:58.715Z,14.53
2019-05-11T09:58:59.130Z,14.45
2019-05-11T09:59:59.546Z,14.49
2019-05-11T10:00:59.961Z,14.44
2019-05-11T10:02:00.932Z,14.41
2019-05-11T10:03:03.693Z,14.38
2019-05-11T10:04:01.113Z,14.34
2019-05-11T10:05:03.632Z,14.38
2019-05-11T10:06:03.881Z,14.38
2019-05-11T10:07:04.020Z,14.31
2019-05-11T10:08:04.756Z,14
2019-05-11T10:09:03.883Z,14.01
2019-05-11T10:10:04.345Z,13.97
2019-05-11T10:11:05.093Z,13.87
2019-05-11T10:12:07.900Z,13.89
2019-05-11T10:13:08.561Z,13.76
2019-05-11T10:14:08.688Z,13.75
2019-05-11T10:15:08.765Z,13.64
2019-05-11T10:16:12.869Z,13.61
2019-05-11T10:17:08.416Z,13.54
2019-05-11T10:18:08.640Z,13.4
2019-05-11T10:19:08.963Z,13.45
2019-05-11T10:20:09.786Z,13.28
2019-05-11T10:21:09.901Z,13.31
2019-05-11T10:22:10.311Z,13.28
2019-05-11T10:23:13.750Z,13.23
2019-05-11T10:24:14.013Z,13.27
2019-05-11T10:25:15.164Z,13.3
2019-05-11T10:26:13.849Z,13.17
2019-05-11T10:27:14.059Z,13.16
2019-05-11T10:28:14.294Z,13.01
2019-05-11T10:29:19.412Z,13.01
2019-05-11T10:30:15.824Z,12.94
2019-05-11T10:31:18.455Z,12.94
2019-05-11T10:32:18.664Z,12.91
2019-05-11T10:33:19.223Z,12.8
2019-05-11T10:34:18.460Z,12.76
2019-05-11T10:35:19.166Z,12.76
2019-05-11T10:36:19.578Z,12.83
2019-05-11T10:37:19.692Z,12.63
2019-05-11T10:38:20.090Z,12.63
2019-05-11T10:39:20.208Z,12.65
2019-05-11T10:40:20.816Z,12.78
2019-05-11T10:41:23.977Z,12.8
2019-05-11T10:42:23.826Z,12.8
2019-05-11T10:43:24.142Z,12.76
2019-05-11T10:44:24.329Z,12.8
2019-05-11T10:45:23.781Z,12.76
2019-05-11T10:46:29.343Z,12.86
2019-05-11T10:47:24.613Z,12.78
2019-05-11T10:48:24.013Z,12.76
2019-05-11T10:49:24.417Z,12.87
2019-05-11T10:50:25.113Z,12.94
2019-05-11T10:51:24.962Z,12.95
2019-05-11T10:52:28.292Z,12.87
2019-05-11T10:53:28.041Z,12.95
2019-05-11T10:54:29.152Z,12.98
2019-05-11T10:55:28.563Z,13.02
2019-05-11T10:56:29.103Z,13.01
2019-05-11T10:57:29.030Z,12.98
2019-05-11T10:58:28.934Z,13.01
2019-05-11T10:59:29.345Z,12.9
2019-05-11T11:00:29.470Z,12.91
2019-05-11T11:01:29.607Z,12.84
2019-05-11T11:02:29.725Z,12.88
2019-05-11T11:03:30.382Z,12.87
2019-05-11T11:04:30.775Z,12.9
2019-05-11T11:05:33.392Z,12.83
2019-05-11T11:06:33.968Z,12.76
2019-05-11T11:07:34.357Z,12.84
2019-05-11T11:08:33.898Z,12.86
2019-05-11T11:09:33.822Z,12.9
2019-05-11T11:10:34.572Z,12.9
2019-05-11T11:11:35.263Z,12.91
2019-05-11T11:12:35.386Z,13.02
2019-05-11T11:13:35.516Z,12.98
2019-05-11T11:14:38.321Z,13.02
2019-05-11T11:15:38.675Z,12.99
2019-05-11T11:16:48.117Z,13.02
2019-05-11T11:17:38.557Z,12.98
2019-05-11T11:18:38.829Z,13.02
2019-05-11T11:19:38.945Z,13.03
2019-05-11T11:20:39.065Z,13.01
2019-05-11T11:21:39.185Z,13.09
2019-05-11T11:22:48.761Z,13.19
2019-05-11T11:23:40.129Z,13.24
2019-05-11T11:24:40.573Z,13.31
2019-05-11T11:25:40.472Z,13.31
2019-05-11T11:26:43.358Z,13.19
2019-05-11T11:27:43.627Z,13.3
2019-05-11T11:28:44.203Z,13.26
2019-05-11T11:29:44.304Z,13.4
2019-05-11T11:30:43.777Z,13.5
2019-05-11T11:31:44.191Z,13.57
2019-05-11T11:32:44.951Z,13.65
2019-05-11T11:33:45.043Z,13.73
2019-05-11T11:34:45.196Z,13.76
2019-05-11T11:35:47.940Z,13.76
2019-05-11T11:36:49.603Z,13.65
2019-05-11T11:37:48.218Z,13.71
2019-05-11T11:38:48.354Z,13.58
2019-05-11T11:39:48.598Z,13.55
2019-05-11T11:40:49.626Z,13.43
2019-05-11T11:41:49.900Z,13.45
2019-05-11T11:42:50.313Z,13.36
2019-05-11T11:43:50.976Z,13.36
2019-05-11T11:44:53.822Z,13.27
2019-05-11T11:45:53.963Z,13.37
2019-05-11T11:47:01.001Z,13.33
2019-05-11T11:47:55.186Z,13.21
2019-05-11T11:48:54.355Z,13.27
2019-05-11T11:49:53.560Z,13.3
2019-05-11T11:50:53.682Z,13.21
2019-05-11T11:51:54.047Z,13.21
2019-05-11T11:52:54.166Z,13.23
2019-05-11T11:53:55.207Z,13.16
2019-05-11T11:54:55.898Z,13.12
2019-05-11T11:55:55.432Z,13.17
2019-05-11T11:56:59.435Z,13.11
2019-05-11T11:57:59.108Z,13.13
2019-05-11T11:58:58.572Z,13.12
2019-05-11T11:59:59.332Z,13.13
2019-05-11T12:00:59.318Z,13.13
2019-05-11T12:01:59.751Z,13.13
2019-05-11T12:03:00.161Z,13.11
2019-05-11T12:04:00.408Z,13.17
2019-05-11T12:05:00.802Z,13.12
2019-05-11T12:06:00.960Z,13.16
2019-05-11T12:07:03.879Z,13.19
2019-05-11T12:08:03.501Z,13.13
2019-05-11T12:09:04.026Z,13.16
2019-05-11T12:10:04.303Z,13.16
2019-05-11T12:11:04.468Z,13.12
2019-05-11T12:12:04.632Z,13.12
2019-05-11T12:13:05.031Z,13.13
2019-05-11T12:14:05.286Z,13.12
2019-05-11T12:15:05.688Z,13.09
2019-05-11T12:16:08.038Z,13.06
2019-05-11T12:17:17.925Z,13.01
2019-05-11T12:18:08.836Z,12.95
2019-05-11T12:19:08.730Z,13.02
2019-05-11T12:20:09.613Z,13.01
2019-05-11T12:21:08.689Z,12.98
2019-05-11T12:22:08.997Z,13.01
2019-05-11T12:23:09.694Z,13.02
2019-05-11T12:24:11.155Z,13.01
2019-05-11T12:25:10.055Z,13.05
2019-05-11T12:26:10.472Z,13.06
2019-05-11T12:27:13.520Z,13.12
2019-05-11T12:28:13.562Z,13.16
2019-05-11T12:29:13.709Z,13.11
2019-05-11T12:30:14.832Z,13.11
2019-05-11T12:31:14.248Z,13.09
2019-05-11T12:32:13.732Z,13.09
2019-05-11T12:33:14.151Z,13.11
2019-05-11T12:34:14.804Z,13.08
2019-05-11T12:35:15.197Z,13.06
2019-05-11T12:36:15.145Z,13.05
2019-05-11T12:37:15.261Z,13.03
2019-05-11T12:38:18.632Z,13.05
2019-05-11T12:39:19.390Z,13.03
2019-05-11T12:40:18.568Z,13.02
2019-05-11T12:41:19.575Z,13.01
2019-05-11T12:42:18.693Z,12.93
2019-05-11T12:43:22.779Z,12.84
2019-05-11T12:44:20.037Z,12.75
2019-05-11T12:45:20.205Z,12.8
2019-05-11T12:46:20.327Z,12.62
2019-05-11T12:47:28.880Z,12.69
2019-05-11T12:48:23.732Z,12.7
2019-05-11T12:49:24.198Z,12.66
2019-05-11T12:50:24.457Z,12.63
2019-05-11T12:51:24.297Z,12.65
2019-05-11T12:52:24.985Z,12.53
2019-05-11T12:53:27.711Z,12.61
2019-05-11T12:54:28.208Z,12.58
2019-05-11T12:55:28.895Z,12.58
2019-05-11T12:56:28.345Z,12.61
2019-05-11T12:57:28.805Z,12.61
2019-05-11T12:58:28.744Z,12.55
2019-05-11T12:59:28.446Z,12.33
2019-05-11T13:00:31.882Z,12.28
2019-05-11T13:01:29.708Z,11.93
2019-05-11T13:02:29.400Z,11.77